Fougeres (35) - B bis

Date : 29/10/2012

Place Nom Licence Catégorie Club Temps CN à J-60 Points Différence Nouveau CN
1 MORLON Marie 2100 D45 5702LO 0:20:03 6285 5374 -911 6285
2 PICAZO Sophie 17789 D45 8405PR 0:20:14 5268 5326 +58 5207
3 CAMPBELL Jane 17406 D55 7807IF 0:21:24 4399 5035 +636 4516
4 GUINOT Véronique 15015 D50 2108BO 0:21:30 5080 5012 -68 5401
5 LEVESY Marie-pierre 20490 D45 3810RA 0:21:48 4376 4943 +567 4436
6 OLIGO Virginie 9192 D45 5604BR 0:22:27 4861 4800 -61 5072
7 KORCHAK Lena 13637 D50 6806AL 0:22:56 5093 4699 -394 5201
8 ROUX Marie Françoise 25236 D50 4201RA 0:23:18 4054 4625 +571 4281
9 REMOUET Marie-Pierre 2782 D45 8311AZ 0:23:39 4776 4556 -220 4817
10 MARCHESIN Sylvie 1487 D50 5702LO 0:24:00 5311 4490 -821 5311
11 PELLETIER Genevieve 10502 D45 6911RA 0:24:03 4991 4480 -511 5040
12 PETIT Guyonne 4372 D55 7808IF 0:24:13 4595 4450 -145 4886
13 LOTERIE Murielle 7044 D45 5907NO 0:24:34 3158 4386 +1228 3638
14 RORA Isabelle 7703 D45 7719IF 0:25:19 3864 4256 +392 3913
15 MARTIN Sylvie 22292 D45 3308AQ 0:25:24 3725 4242 +517 3967
16 GIRE Camille 886 D45 7707IF 0:25:31 4566 4223 -343 4586
17 BLUM Virginie 12646 D50 5116CA 0:25:42 4300 4193 -107 4523
18 KASTENSSON Lotta 22993 D45 0615AZ 0:25:46 4004 4182 +178 4121
19 MARTIN Pascale 23568 D50 7512IF 0:25:54 4802 4160 -642 4858
20 LAPEYRE Frederique 17633 D45 1905LI 0:26:17 4313 4100 -213 4473
21 BONNET Christine 2400 D55 5402LO 0:26:18 4990 4097 -893 4990
22 ANGLADE Françoise 22255 D45 5604BR 0:26:21 3752 4089 +337 3779
23 GUINOT Joelle 18977 D45 1905LI 0:26:33 3617 4059 +442 3671
24 RAUTURIER Nathalie 3200 D45 7807IF 0:26:49 4094 4018 -76 4179
25 DIEUDONNE Madeleine 1380 D65 7808IF 0:26:50 4391 4016 -375 4674
26 PERE Catherine 2730 D50 2105BO 0:26:56 4422 4001 -421 4422
27 EUDIER Agnès 13233 D50 2704NM 0:26:58 4183 3996 -187 4217
28 OBSTETAR Anne 12771 D45 5703LO 0:26:59 5322 3993 -1329 5575
29 BOCQUET Pascale 12715 D50 4010AQ 0:27:05 3855 3979 +124 3906
30 FIGUIERE Valérie 274 D45 7109BO 0:27:33 4499 3911 -588 4678
31 CORDEIRO MENDES Myriam 9235 D50 6008PI 0:27:42 3720 3890 +170 3882
32 PIERSON Blandine 19003 D45 9109IF 0:27:53 3939 3864 -75 3945
33 BONNEAU Catherine 3354 D45 7719IF 0:28:05 3914 3837 -77 3936
34 GILLET Annabelle 19601 D45 5116CA 0:28:50 3825 3737 -88 4021
35 CHABANCE Anne 20752 D45 4201RA 0:29:04 2853 3707 +854 3230
36 VILLEDIEU Martine 13752 D55 6913RA 0:29:13 3904 3688 -216 3904
37 RAVENEL Veronique 10902 D45 6804AL 0:29:23 3285 3667 +382 3325
38 RICHARD Nicole 14245 D60 0207PI 0:29:48 3396 3616 +220 3645
39 DUCHENE Edith 2481 D50 8807LO 0:29:54 3576 3604 +28 3597
40 DOUSSET Corinne 20729 D45 4709AQ 0:30:01 4206 3590 -616 4206
41 BERGER M-Jose 7182 D60 5703LO 0:30:01 4040 3590 -450 4040
42 SIMON Anne 14099 D45 2605RA 0:30:19 0 3554 3381
43 MOISSET Nicole 2329 D55 7403RA 0:30:32 3567 3529 -38 3606
44 RINGOT Veronique 12356 D45 6913RA 0:30:36 3008 3521 +513 3053
45 BOULANGER Isabelle 10639 D55 5907NO 0:30:48 3366 3499 +133 3516
46 GRAIN Nathalie 24640 D45 2704NM 0:31:52 2290 3381 +1091 2516
47 LEBLOIS Delphine 22825 D45 7716IF 0:32:37 3304 0
48 DASILVA Irene 878 D45 7707IF 0:33:23 3159 3228 +69 3196
49 FOUCHER Marie 23997 D45 7716IF 0:33:34 3210 0
50 SPILKA Natacha 12443 D45 1403NM 0:33:37 3421 3205 -216 3421
51 HARDEL Elisabeth 8998 D60 1403NM 0:33:42 2240 3197 +957 2544
52 GOLMARD Chantal 2668 D55 2101BO 0:33:47 3063 3190 +127 3274
53 GREVET Claudie 15296 D50 6806AL 0:34:33 3046 3119 +73 3157
54 HAURY Evelyne 13692 D45 6806AL 0:34:46 4350 3099 -1251 4593
55 CLET Arlette 3195 D45 7709IF 0:35:56 4208 2999 -1209 4076
56 CHAUVINEAU Christine 15228 D45 7807IF 0:36:19 3240 2967 -273 3275
57 BODY Agnes 10182 D45 7305RA 0:37:01 3194 2911 -283 3239
58 BERION Marie-Josephe 23056 D55 2508FC 0:37:27 2167 2877 +710 2463
59 SERRE Francine 3429 D45 5907NO 0:37:52 1789 2846 +1057 2075
60 LIJOUR Lydie 23781 D45 7716IF 0:38:11 0 2822 0
61 BERGEGERE Sandrine 23654 D45 8405PR 0:38:20 2382 2811 +429 2447
62 BRUNEL Marie-Jo 8761 D60 8903BO 0:38:47 3580 2778 -802 3580
63 VILLAME Uli 22384 D45 7719IF 0:39:04 3270 2758 -512 3270
64 VANOVERBERGHE Nathalie 22237 D45 6208NO 0:39:08 2954 2754 -200 2986
65 MONTANARI Colette 2533 D60 5703LO 0:39:10 3715 2751 -964 3715
66 PICARD Pascale 23216 D45 2704NM 0:41:22 2410 2605 +195 2536
67 RAULT Monique 17265 D55 1103LR 0:42:17 3213 2548 -665 3279
68 GERBEAUX Marie-jeanne 22417 D55 6205NO 0:43:45 3486 2463 -1023 3667
69 CALANDOT Michelle 2927 D55 1403NM 0:45:03 2864 2392 -472 2864
70 KIEFFER Mireille 2680 D65 2101BO 0:45:16 2779 2380 -399 2779
71 LAMINETTE M-Odile 17201 D50 5907NO 0:46:08 2605 2336 -269 2775
72 VERDIN Christine 15274 D50 7109BO 0:46:53 2771 2298 -473 2771
73 GUILLEMER Catherine 23390 D50 2208BR 0:50:19 1669 2142 +473 1906
74 ALLANCON Claudine 14632 D60 2906BR 0:52:05 2095 2069 -26 2091
75 LUDEWIG-JAMES Carol 15894 D70 5907NO 0:53:33 2388 2012 -376 2483
76 THIEBAUT Evelyne 16129 D55 5702LO 1:06:12 3504 1628 -1876 3316
77 QUEYROI Yvette 14021 D50 3308AQ 1:08:56 2107 1563 -544 2107
BOUCHE Sylvie 7520 D50 9105IF pm 3465 0 3596
MOISSERON Claire 19996 D45 1403NM pm 3206 0 3159
DUPOIRIEUX Sophie 10496 D50 8807LO pm 4124 0 4124
LABEUR Roselyne 905 D60 7707IF pm 3903 0 3903
PEYCLIT Christine 19825 D45 1905LI pm 2252 0 2256
BASTIEN-FATH Nicole 8954 D65 5402LO pm 2564 0 2564